sensor_id;sensor_type;location;lat;lon;timestamp;temperature;humidity
41884;DHT22;27566;50.930;5.328;2024-03-23T00:55:53;8.10;94.20
41884;DHT22;27566;50.930;5.328;2024-03-23T00:58:19;8.10;94.20
41884;DHT22;27566;50.930;5.328;2024-03-23T01:00:45;8.20;94.30
41884;DHT22;27566;50.930;5.328;2024-03-23T01:03:11;8.20;94.30
41884;DHT22;27566;50.930;5.328;2024-03-23T01:05:37;8.30;94.40
41884;DHT22;27566;50.930;5.328;2024-03-23T01:08:03;8.50;97.50
41884;DHT22;27566;50.930;5.328;2024-03-23T01:10:29;8.30;94.30
41884;DHT22;27566;50.930;5.328;2024-03-23T01:12:56;8.40;94.30
41884;DHT22;27566;50.930;5.328;2024-03-23T01:15:22;8.60;94.10
41884;DHT22;27566;50.930;5.328;2024-03-23T01:17:48;8.50;94.30
41884;DHT22;27566;50.930;5.328;2024-03-23T01:20:14;8.60;94.20
41884;DHT22;27566;50.930;5.328;2024-03-23T01:22:40;8.70;94.10
41884;DHT22;27566;50.930;5.328;2024-03-23T01:25:06;8.40;97.10
41884;DHT22;27566;50.930;5.328;2024-03-23T01:27:32;8.70;93.90
41884;DHT22;27566;50.930;5.328;2024-03-23T01:29:58;8.70;93.80
41884;DHT22;27566;50.930;5.328;2024-03-23T01:32:24;8.70;93.90
41884;DHT22;27566;50.930;5.328;2024-03-23T01:37:16;8.80;97.20
41884;DHT22;27566;50.930;5.328;2024-03-23T01:39:42;8.70;93.90
41884;DHT22;27566;50.930;5.328;2024-03-23T01:42:07;8.80;93.80
41884;DHT22;27566;50.930;5.328;2024-03-23T01:44:33;8.80;93.80
41884;DHT22;27566;50.930;5.328;2024-03-23T01:46:59;8.70;93.80
41884;DHT22;27566;50.930;5.328;2024-03-23T01:49:26;9.10;97.70
41884;DHT22;27566;50.930;5.328;2024-03-23T01:51:52;8.90;97.50
41884;DHT22;27566;50.930;5.328;2024-03-23T01:54:17;8.80;93.90
41884;DHT22;27566;50.930;5.328;2024-03-23T01:56:44;8.80;93.80
41884;DHT22;27566;50.930;5.328;2024-03-23T01:59:10;8.80;93.80
41884;DHT22;27566;50.930;5.328;2024-03-23T02:04:02;8.80;97.80
41884;DHT22;27566;50.930;5.328;2024-03-23T02:06:28;8.60;97.70
41884;DHT22;27566;50.930;5.328;2024-03-23T02:08:55;8.90;98.00
41884;DHT22;27566;50.930;5.328;2024-03-23T02:11:21;9.10;97.80
41884;DHT22;27566;50.930;5.328;2024-03-23T02:13:46;8.80;93.80
41884;DHT22;27566;50.930;5.328;2024-03-23T02:16:12;8.90;93.70
41884;DHT22;27566;50.930;5.328;2024-03-23T02:18:41;8.90;97.80
41884;DHT22;27566;50.930;5.328;2024-03-23T02:21:07;8.50;97.70
41884;DHT22;27566;50.930;5.328;2024-03-23T02:23:33;8.80;97.70
41884;DHT22;27566;50.930;5.328;2024-03-23T02:25:59;8.40;97.50
41884;DHT22;27566;50.930;5.328;2024-03-23T02:28:25;8.60;98.00
41884;DHT22;27566;50.930;5.328;2024-03-23T02:30:51;8.70;97.90
41884;DHT22;27566;50.930;5.328;2024-03-23T02:33:17;8.60;97.90
41884;DHT22;27566;50.930;5.328;2024-03-23T02:35:45;8.60;98.10
41884;DHT22;27566;50.930;5.328;2024-03-23T02:38:11;8.60;97.90
41884;DHT22;27566;50.930;5.328;2024-03-23T02:43:04;8.50;98.30
41884;DHT22;27566;50.930;5.328;2024-03-23T02:45:30;8.60;98.50
41884;DHT22;27566;50.930;5.328;2024-03-23T02:47:56;8.90;98.80
41884;DHT22;27566;50.930;5.328;2024-03-23T02:50:22;8.50;98.70
41884;DHT22;27566;50.930;5.328;2024-03-23T02:52:48;8.70;98.80
41884;DHT22;27566;50.930;5.328;2024-03-23T02:55:14;8.50;98.70
41884;DHT22;27566;50.930;5.328;2024-03-23T02:57:41;8.90;98.70
41884;DHT22;27566;50.930;5.328;2024-03-23T03:00:07;8.20;98.60
41884;DHT22;27566;50.930;5.328;2024-03-23T03:02:34;8.20;98.70
41884;DHT22;27566;50.930;5.328;2024-03-23T03:05:00;8.70;98.90
41884;DHT22;27566;50.930;5.328;2024-03-23T03:09:52;8.10;98.70
41884;DHT22;27566;50.930;5.328;2024-03-23T03:12:18;8.40;98.80
41884;DHT22;27566;50.930;5.328;2024-03-23T03:17:10;8.50;98.70
41884;DHT22;27566;50.930;5.328;2024-03-23T03:19:36;8.30;95.10
41884;DHT22;27566;50.930;5.328;2024-03-23T03:22:02;8.10;99.10
41884;DHT22;27566;50.930;5.328;2024-03-23T03:24:29;8.70;98.90
41884;DHT22;27566;50.930;5.328;2024-03-23T03:26:55;8.70;99.00
41884;DHT22;27566;50.930;5.328;2024-03-23T03:29:21;8.60;98.80
41884;DHT22;27566;50.930;5.328;2024-03-23T03:34:15;8.70;99.00
41884;DHT22;27566;50.930;5.328;2024-03-23T03:36:41;8.60;99.00
41884;DHT22;27566;50.930;5.328;2024-03-23T03:39:07;8.30;98.80
41884;DHT22;27566;50.930;5.328;2024-03-23T03:43:59;8.80;99.40
41884;DHT22;27566;50.930;5.328;2024-03-23T03:46:28;8.70;99.70
41884;DHT22;27566;50.930;5.328;2024-03-23T03:48:56;8.60;93.70
41884;DHT22;27566;50.930;5.328;2024-03-23T03:51:22;8.80;99.30
41884;DHT22;27566;50.930;5.328;2024-03-23T03:56:14;8.70;99.20
41884;DHT22;27566;50.930;5.328;2024-03-23T03:58:40;8.40;99.20
41884;DHT22;27566;50.930;5.328;2024-03-23T04:01:06;8.40;99.20
41884;DHT22;27566;50.930;5.328;2024-03-23T04:03:32;8.50;99.20
41884;DHT22;27566;50.930;5.328;2024-03-23T04:08:24;8.30;98.70
41884;DHT22;27566;50.930;5.328;2024-03-23T04:11:00;8.30;98.90
41884;DHT22;27566;50.930;5.328;2024-03-23T04:13:26;8.60;98.90
41884;DHT22;27566;50.930;5.328;2024-03-23T04:18:29;8.30;98.80
41884;DHT22;27566;50.930;5.328;2024-03-23T04:20:55;7.90;98.80
41884;DHT22;27566;50.930;5.328;2024-03-23T04:25:47;8.10;98.10
41884;DHT22;27566;50.930;5.328;2024-03-23T04:28:13;7.90;99.00
41884;DHT22;27566;50.930;5.328;2024-03-23T04:33:05;8.10;98.90
41884;DHT22;27566;50.930;5.328;2024-03-23T04:35:31;7.90;98.60
41884;DHT22;27566;50.930;5.328;2024-03-23T04:40:25;7.40;98.70
41884;DHT22;27566;50.930;5.328;2024-03-23T04:42:51;7.40;98.60
41884;DHT22;27566;50.930;5.328;2024-03-23T04:47:43;7.70;99.00
41884;DHT22;27566;50.930;5.328;2024-03-23T04:50:09;7.30;94.10
41884;DHT22;27566;50.930;5.328;2024-03-23T04:52:36;7.60;99.80
41884;DHT22;27566;50.930;5.328;2024-03-23T04:57:28;7.50;96.40
41884;DHT22;27566;50.930;5.328;2024-03-23T05:02:22;7.20;99.90
41884;DHT22;27566;50.930;5.328;2024-03-23T05:07:14;7.20;99.40
41884;DHT22;27566;50.930;5.328;2024-03-23T05:09:40;7.40;99.60
41884;DHT22;27566;50.930;5.328;2024-03-23T05:12:06;7.60;96.80
41884;DHT22;27566;50.930;5.328;2024-03-23T05:14:32;7.10;99.50
41884;DHT22;27566;50.930;5.328;2024-03-23T05:16:58;7.00;99.70
41884;DHT22;27566;50.930;5.328;2024-03-23T05:19:24;7.60;99.90
41884;DHT22;27566;50.930;5.328;2024-03-23T05:26:42;7.60;99.90
41884;DHT22;27566;50.930;5.328;2024-03-23T05:34:07;7.60;99.50
41884;DHT22;27566;50.930;5.328;2024-03-23T05:36:34;7.70;99.40
41884;DHT22;27566;50.930;5.328;2024-03-23T05:41:26;7.40;99.30
41884;DHT22;27566;50.930;5.328;2024-03-23T05:43:52;7.60;99.40
41884;DHT22;27566;50.930;5.328;2024-03-23T05:46:18;7.50;98.40
41884;DHT22;27566;50.930;5.328;2024-03-23T05:48:44;7.90;99.40
41884;DHT22;27566;50.930;5.328;2024-03-23T05:53:38;7.60;99.50
41884;DHT22;27566;50.930;5.328;2024-03-23T05:56:04;8.10;99.60
41884;DHT22;27566;50.930;5.328;2024-03-23T05:58:30;8.30;99.70
41884;DHT22;27566;50.930;5.328;2024-03-23T06:01:00;8.20;99.50
41884;DHT22;27566;50.930;5.328;2024-03-23T06:03:27;7.90;99.40
41884;DHT22;27566;50.930;5.328;2024-03-23T06:05:53;8.10;99.30
41884;DHT22;27566;50.930;5.328;2024-03-23T06:08:20;8.00;99.40
41884;DHT22;27566;50.930;5.328;2024-03-23T06:10:46;8.00;99.50
41884;DHT22;27566;50.930;5.328;2024-03-23T06:13:12;8.10;99.30
41884;DHT22;27566;50.930;5.328;2024-03-23T06:15:39;8.00;99.10
41884;DHT22;27566;50.930;5.328;2024-03-23T06:18:05;7.70;99.70
41884;DHT22;27566;50.930;5.328;2024-03-23T06:22:57;8.00;99.80
41884;DHT22;27566;50.930;5.328;2024-03-23T06:25:23;8.30;97.60
41884;DHT22;27566;50.930;5.328;2024-03-23T06:30:15;8.30;99.30
41884;DHT22;27566;50.930;5.328;2024-03-23T06:37:36;8.20;95.30
41884;DHT22;27566;50.930;5.328;2024-03-23T06:40:02;8.80;93.40
41884;DHT22;27566;50.930;5.328;2024-03-23T06:42:30;7.90;93.20
41884;DHT22;27566;50.930;5.328;2024-03-23T06:44:56;8.20;93.40
41884;DHT22;27566;50.930;5.328;2024-03-23T06:49:48;8.50;99.60
41884;DHT22;27566;50.930;5.328;2024-03-23T06:52:14;8.90;99.60
41884;DHT22;27566;50.930;5.328;2024-03-23T06:57:06;9.30;99.60
41884;DHT22;27566;50.930;5.328;2024-03-23T06:59:32;9.40;98.90
41884;DHT22;27566;50.930;5.328;2024-03-23T07:01:58;9.80;99.20
41884;DHT22;27566;50.930;5.328;2024-03-23T07:04:24;9.80;99.20
41884;DHT22;27566;50.930;5.328;2024-03-23T07:06:50;9.70;94.50
41884;DHT22;27566;50.930;5.328;2024-03-23T07:09:17;9.40;98.30
41884;DHT22;27566;50.930;5.328;2024-03-23T07:11:43;9.20;98.50
41884;DHT22;27566;50.930;5.328;2024-03-23T07:21:27;9.20;99.20
41884;DHT22;27566;50.930;5.328;2024-03-23T07:26:19;9.80;95.50
41884;DHT22;27566;50.930;5.328;2024-03-23T07:28:45;9.80;98.80
41884;DHT22;27566;50.930;5.328;2024-03-23T07:31:13;10.30;98.60
41884;DHT22;27566;50.930;5.328;2024-03-23T07:36:09;10.30;98.20
41884;DHT22;27566;50.930;5.328;2024-03-23T07:38:35;10.50;97.80
41884;DHT22;27566;50.930;5.328;2024-03-23T07:41:13;10.50;97.60
41884;DHT22;27566;50.930;5.328;2024-03-23T07:43:40;10.50;97.60
41884;DHT22;27566;50.930;5.328;2024-03-23T07:46:06;10.90;97.50
41884;DHT22;27566;50.930;5.328;2024-03-23T07:48:32;11.10;97.60
41884;DHT22;27566;50.930;5.328;2024-03-23T07:51:07;10.70;97.50
41884;DHT22;27566;50.930;5.328;2024-03-23T07:53:34;10.90;94.50
41884;DHT22;27566;50.930;5.328;2024-03-23T07:56:08;10.60;92.10
41884;DHT22;27566;50.930;5.328;2024-03-23T07:58:36;10.60;94.50
41884;DHT22;27566;50.930;5.328;2024-03-23T08:01:12;10.30;92.20
41884;DHT22;27566;50.930;5.328;2024-03-23T08:03:41;10.20;92.50
41884;DHT22;27566;50.930;5.328;2024-03-23T08:06:12;10.60;97.90
41884;DHT22;27566;50.930;5.328;2024-03-23T08:08:38;10.00;97.80
41884;DHT22;27566;50.930;5.328;2024-03-23T08:11:04;10.30;97.90
41884;DHT22;27566;50.930;5.328;2024-03-23T08:13:32;10.70;97.80
41884;DHT22;27566;50.930;5.328;2024-03-23T08:15:59;10.70;92.30
41884;DHT22;27566;50.930;5.328;2024-03-23T08:18:25;10.70;97.40
41884;DHT22;27566;50.930;5.328;2024-03-23T08:21:05;10.80;97.30
41884;DHT22;27566;50.930;5.328;2024-03-23T08:23:32;10.90;97.20
41884;DHT22;27566;50.930;5.328;2024-03-23T08:26:07;10.90;97.20
41884;DHT22;27566;50.930;5.328;2024-03-23T08:32:36;10.60;91.90
41884;DHT22;27566;50.930;5.328;2024-03-23T08:38:07;10.30;97.20
41884;DHT22;27566;50.930;5.328;2024-03-23T08:40:33;10.30;97.20
41884;DHT22;27566;50.930;5.328;2024-03-23T08:42:58;10.80;97.40
41884;DHT22;27566;50.930;5.328;2024-03-23T08:45:25;10.80;95.10
41884;DHT22;27566;50.930;5.328;2024-03-23T08:47:51;10.70;92.50
41884;DHT22;27566;50.930;5.328;2024-03-23T08:50:17;11.20;97.20
41884;DHT22;27566;50.930;5.328;2024-03-23T08:52:44;11.20;96.90
41884;DHT22;27566;50.930;5.328;2024-03-23T08:55:09;11.60;94.60
41884;DHT22;27566;50.930;5.328;2024-03-23T08:57:36;11.70;92.30
41884;DHT22;27566;50.930;5.328;2024-03-23T09:00:02;12.20;96.50
41884;DHT22;27566;50.930;5.328;2024-03-23T09:02:28;11.90;96.20
41884;DHT22;27566;50.930;5.328;2024-03-23T09:04:54;12.10;96.30
41884;DHT22;27566;50.930;5.328;2024-03-23T09:07:20;12.60;95.80
41884;DHT22;27566;50.930;5.328;2024-03-23T09:09:46;12.40;91.30
41884;DHT22;27566;50.930;5.328;2024-03-23T09:14:38;13.00;95.10
41884;DHT22;27566;50.930;5.328;2024-03-23T09:17:04;13.20;94.70
41884;DHT22;27566;50.930;5.328;2024-03-23T09:19:31;12.90;94.90
41884;DHT22;27566;50.930;5.328;2024-03-23T09:21:56;13.40;94.50
41884;DHT22;27566;50.930;5.328;2024-03-23T09:26:48;13.10;93.70
41884;DHT22;27566;50.930;5.328;2024-03-23T09:29:15;13.20;93.70
41884;DHT22;27566;50.930;5.328;2024-03-23T09:31:40;13.70;93.00
41884;DHT22;27566;50.930;5.328;2024-03-23T09:36:33;12.90;94.30
41884;DHT22;27566;50.930;5.328;2024-03-23T09:41:25;12.80;94.30
41884;DHT22;27566;50.930;5.328;2024-03-23T09:43:54;13.00;92.40
41884;DHT22;27566;50.930;5.328;2024-03-23T09:46:20;13.80;93.50
41884;DHT22;27566;50.930;5.328;2024-03-23T09:48:47;13.40;93.10
41884;DHT22;27566;50.930;5.328;2024-03-23T09:53:39;13.10;92.90
41884;DHT22;27566;50.930;5.328;2024-03-23T09:56:05;12.50;92.30
41884;DHT22;27566;50.930;5.328;2024-03-23T10:00:58;12.40;85.80
41884;DHT22;27566;50.930;5.328;2024-03-23T10:03:24;11.80;87.40
41884;DHT22;27566;50.930;5.328;2024-03-23T10:06:03;11.70;87.70
41884;DHT22;27566;50.930;5.328;2024-03-23T10:08:30;11.60;94.30
41884;DHT22;27566;50.930;5.328;2024-03-23T10:11:16;11.20;94.70
41884;DHT22;27566;50.930;5.328;2024-03-23T10:13:43;11.40;92.70
41884;DHT22;27566;50.930;5.328;2024-03-23T10:16:10;11.20;89.60
41884;DHT22;27566;50.930;5.328;2024-03-23T10:18:39;11.10;89.20
41884;DHT22;27566;50.930;5.328;2024-03-23T10:31:23;10.70;94.00
41884;DHT22;27566;50.930;5.328;2024-03-23T10:33:49;10.90;94.90
41884;DHT22;27566;50.930;5.328;2024-03-23T10:36:16;11.30;94.70
41884;DHT22;27566;50.930;5.328;2024-03-23T10:38:44;11.40;94.10
41884;DHT22;27566;50.930;5.328;2024-03-23T10:41:10;11.70;94.20
41884;DHT22;27566;50.930;5.328;2024-03-23T10:43:37;12.00;94.30
41884;DHT22;27566;50.930;5.328;2024-03-23T10:46:03;12.60;93.80
41884;DHT22;27566;50.930;5.328;2024-03-23T10:48:29;13.00;92.90
41884;DHT22;27566;50.930;5.328;2024-03-23T10:50:55;13.10;92.30
41884;DHT22;27566;50.930;5.328;2024-03-23T10:53:28;12.70;90.90
41884;DHT22;27566;50.930;5.328;2024-03-23T10:55:55;11.70;77.50
41884;DHT22;27566;50.930;5.328;2024-03-23T11:01:03;10.20;92.30
41884;DHT22;27566;50.930;5.328;2024-03-23T11:03:33;9.40;93.20
41884;DHT22;27566;50.930;5.328;2024-03-23T11:06:00;9.60;93.50
41884;DHT22;27566;50.930;5.328;2024-03-23T11:11:19;9.60;95.50
41884;DHT22;27566;50.930;5.328;2024-03-23T11:13:48;9.60;95.90
41884;DHT22;27566;50.930;5.328;2024-03-23T11:16:31;9.90;90.50
41884;DHT22;27566;50.930;5.328;2024-03-23T11:19:35;9.90;90.50
41884;DHT22;27566;50.930;5.328;2024-03-23T11:22:02;10.10;96.00
41884;DHT22;27566;50.930;5.328;2024-03-23T11:24:32;10.40;92.40
41884;DHT22;27566;50.930;5.328;2024-03-23T11:29:26;10.50;91.90
41884;DHT22;27566;50.930;5.328;2024-03-23T11:31:53;9.80;90.70
41884;DHT22;27566;50.930;5.328;2024-03-23T11:34:19;10.60;90.80
41884;DHT22;27566;50.930;5.328;2024-03-23T11:36:46;10.80;90.00
41884;DHT22;27566;50.930;5.328;2024-03-23T11:39:16;10.90;92.00
41884;DHT22;27566;50.930;5.328;2024-03-23T11:41:47;10.40;94.30
41884;DHT22;27566;50.930;5.328;2024-03-23T11:44:20;10.60;91.90
41884;DHT22;27566;50.930;5.328;2024-03-23T11:46:46;10.20;90.20
41884;DHT22;27566;50.930;5.328;2024-03-23T11:49:26;9.90;95.90
41884;DHT22;27566;50.930;5.328;2024-03-23T11:51:53;10.00;90.70
41884;DHT22;27566;50.930;5.328;2024-03-23T11:54:26;10.10;96.20
41884;DHT22;27566;50.930;5.328;2024-03-23T11:57:02;9.80;96.50
41884;DHT22;27566;50.930;5.328;2024-03-23T12:02:11;9.60;90.80
41884;DHT22;27566;50.930;5.328;2024-03-23T12:04:39;9.30;95.10
41884;DHT22;27566;50.930;5.328;2024-03-23T12:07:13;8.90;88.80
41884;DHT22;27566;50.930;5.328;2024-03-23T12:09:40;8.60;88.70
41884;DHT22;27566;50.930;5.328;2024-03-23T12:12:24;7.90;90.40
41884;DHT22;27566;50.930;5.328;2024-03-23T12:15:07;10.40;94.80
41884;DHT22;27566;50.930;5.328;2024-03-23T12:17:34;8.10;98.10
41884;DHT22;27566;50.930;5.328;2024-03-23T12:20:01;8.60;94.90
41884;DHT22;27566;50.930;5.328;2024-03-23T12:22:27;8.90;94.10
41884;DHT22;27566;50.930;5.328;2024-03-23T12:24:55;9.20;98.60
41884;DHT22;27566;50.930;5.328;2024-03-23T12:27:21;9.00;95.10
41884;DHT22;27566;50.930;5.328;2024-03-23T12:32:13;9.30;95.30
41884;DHT22;27566;50.930;5.328;2024-03-23T12:34:40;9.30;96.40
41884;DHT22;27566;50.930;5.328;2024-03-23T12:39:33;10.30;98.70
41884;DHT22;27566;50.930;5.328;2024-03-23T12:42:01;10.00;98.40
41884;DHT22;27566;50.930;5.328;2024-03-23T12:44:28;9.70;98.20
41884;DHT22;27566;50.930;5.328;2024-03-23T14:50:59;10.90;97.50
41884;DHT22;27566;50.930;5.328;2024-03-23T15:35:29;9.70;97.20
41884;DHT22;27566;50.930;5.328;2024-03-23T15:37:55;10.00;97.20
41884;DHT22;27566;50.930;5.328;2024-03-23T15:40:21;9.80;97.20
41884;DHT22;27566;50.930;5.328;2024-03-23T15:42:48;9.10;91.70
41884;DHT22;27566;50.930;5.328;2024-03-23T15:45:14;9.80;95.30
41884;DHT22;27566;50.930;5.328;2024-03-23T15:50:06;9.90;97.20
41884;DHT22;27566;50.930;5.328;2024-03-23T15:52:35;9.90;97.10
41884;DHT22;27566;50.930;5.328;2024-03-23T15:55:04;9.70;97.10
41884;DHT22;27566;50.930;5.328;2024-03-23T15:57:36;9.80;97.10
41884;DHT22;27566;50.930;5.328;2024-03-23T16:00:02;9.90;91.90
41884;DHT22;27566;50.930;5.328;2024-03-23T16:02:29;10.30;97.10
41884;DHT22;27566;50.930;5.328;2024-03-23T16:04:55;10.50;96.90
41884;DHT22;27566;50.930;5.328;2024-03-23T16:07:22;9.90;96.50
41884;DHT22;27566;50.930;5.328;2024-03-23T16:09:48;10.70;96.80
41884;DHT22;27566;50.930;5.328;2024-03-23T16:12:14;10.60;96.50
41884;DHT22;27566;50.930;5.328;2024-03-23T16:17:06;10.00;96.30
41884;DHT22;27566;50.930;5.328;2024-03-23T16:21:58;9.30;96.10
41884;DHT22;27566;50.930;5.328;2024-03-23T16:29:17;10.20;96.30
41884;DHT22;27566;50.930;5.328;2024-03-23T16:31:43;9.70;95.60
41884;DHT22;27566;50.930;5.328;2024-03-23T16:34:09;9.80;96.20
41884;DHT22;27566;50.930;5.328;2024-03-23T16:36:35;9.40;92.40
41884;DHT22;27566;50.930;5.328;2024-03-23T16:39:01;9.30;95.50
41884;DHT22;27566;50.930;5.328;2024-03-23T16:41:27;9.00;94.90
41884;DHT22;27566;50.930;5.328;2024-03-23T16:46:19;8.70;98.30
41884;DHT22;27566;50.930;5.328;2024-03-23T16:48:45;9.10;98.30
41884;DHT22;27566;50.930;5.328;2024-03-23T16:51:12;9.10;93.10
41884;DHT22;27566;50.930;5.328;2024-03-23T16:53:38;9.10;98.20
41884;DHT22;27566;50.930;5.328;2024-03-23T16:56:08;9.30;98.20
41884;DHT22;27566;50.930;5.328;2024-03-23T16:58:38;9.00;93.50
41884;DHT22;27566;50.930;5.328;2024-03-23T17:01:06;8.80;98.00
41884;DHT22;27566;50.930;5.328;2024-03-23T17:06:08;8.20;98.00
41884;DHT22;27566;50.930;5.328;2024-03-23T17:08:34;8.30;98.40
41884;DHT22;27566;50.930;5.328;2024-03-23T17:11:01;8.50;98.50
41884;DHT22;27566;50.930;5.328;2024-03-23T17:13:29;8.10;92.90
41884;DHT22;27566;50.930;5.328;2024-03-23T17:15:56;8.10;98.40
41884;DHT22;27566;50.930;5.328;2024-03-23T17:25:40;7.70;94.00
41884;DHT22;27566;50.930;5.328;2024-03-23T17:28:06;7.70;92.90
41884;DHT22;27566;50.930;5.328;2024-03-23T17:30:33;8.00;98.40
41884;DHT22;27566;50.930;5.328;2024-03-23T17:32:59;8.00;98.50
41884;DHT22;27566;50.930;5.328;2024-03-23T17:42:43;7.50;98.40
41884;DHT22;27566;50.930;5.328;2024-03-23T17:45:09;7.80;98.60
41884;DHT22;27566;50.930;5.328;2024-03-23T17:47:41;8.10;98.80
41884;DHT22;27566;50.930;5.328;2024-03-23T17:50:08;7.90;98.50
41884;DHT22;27566;50.930;5.328;2024-03-23T17:52:34;7.30;98.40
41884;DHT22;27566;50.930;5.328;2024-03-23T17:55:01;7.40;98.40
41884;DHT22;27566;50.930;5.328;2024-03-23T17:57:27;7.70;98.50
41884;DHT22;27566;50.930;5.328;2024-03-23T17:59:54;6.90;92.90
41884;DHT22;27566;50.930;5.328;2024-03-23T18:04:49;7.90;97.00
41884;DHT22;27566;50.930;5.328;2024-03-23T18:07:16;7.40;98.60
41884;DHT22;27566;50.930;5.328;2024-03-23T18:12:09;7.60;98.70
41884;DHT22;27566;50.930;5.328;2024-03-23T18:14:35;7.50;94.30
41884;DHT22;27566;50.930;5.328;2024-03-23T18:19:27;7.10;93.50
41884;DHT22;27566;50.930;5.328;2024-03-23T18:29:19;7.40;93.10
41884;DHT22;27566;50.930;5.328;2024-03-23T18:41:29;7.50;93.20
41884;DHT22;27566;50.930;5.328;2024-03-23T18:43:56;7.40;98.80
41884;DHT22;27566;50.930;5.328;2024-03-23T18:46:23;7.80;99.00
41884;DHT22;27566;50.930;5.328;2024-03-23T18:48:49;7.60;98.80
41884;DHT22;27566;50.930;5.328;2024-03-23T18:56:07;8.00;98.90
41884;DHT22;27566;50.930;5.328;2024-03-23T18:58:33;7.50;98.40
41884;DHT22;27566;50.930;5.328;2024-03-23T19:01:05;8.50;97.00
41884;DHT22;27566;50.930;5.328;2024-03-23T19:03:32;8.20;98.80
41884;DHT22;27566;50.930;5.328;2024-03-23T19:06:00;7.80;98.70
41884;DHT22;27566;50.930;5.328;2024-03-23T19:08:26;7.80;98.70
41884;DHT22;27566;50.930;5.328;2024-03-23T19:10:59;7.90;93.00
41884;DHT22;27566;50.930;5.328;2024-03-23T19:13:26;7.90;94.40
41884;DHT22;27566;50.930;5.328;2024-03-23T19:15:53;7.70;92.60
41884;DHT22;27566;50.930;5.328;2024-03-23T19:20:55;7.40;92.80
41884;DHT22;27566;50.930;5.328;2024-03-23T19:23:22;7.30;93.00
41884;DHT22;27566;50.930;5.328;2024-03-23T19:26:01;7.30;93.10
41884;DHT22;27566;50.930;5.328;2024-03-23T19:35:56;7.50;99.00
41884;DHT22;27566;50.930;5.328;2024-03-23T19:40:55;7.20;99.00
41884;DHT22;27566;50.930;5.328;2024-03-23T19:43:21;7.30;99.00
41884;DHT22;27566;50.930;5.328;2024-03-23T19:45:47;6.90;98.90
41884;DHT22;27566;50.930;5.328;2024-03-23T19:48:13;7.00;99.20
41884;DHT22;27566;50.930;5.328;2024-03-23T19:50:39;7.00;99.00
41884;DHT22;27566;50.930;5.328;2024-03-23T19:57:58;7.20;99.10
41884;DHT22;27566;50.930;5.328;2024-03-23T20:00:24;7.50;94.30
41884;DHT22;27566;50.930;5.328;2024-03-23T20:07:42;7.20;95.00
41884;DHT22;27566;50.930;5.328;2024-03-23T20:10:08;7.30;98.30
41884;DHT22;27566;50.930;5.328;2024-03-23T20:12:36;6.90;95.30
41884;DHT22;27566;50.930;5.328;2024-03-23T20:15:02;7.10;94.10
41884;DHT22;27566;50.930;5.328;2024-03-23T20:19:54;7.20;98.60
41884;DHT22;27566;50.930;5.328;2024-03-23T20:24:45;7.00;97.00
41884;DHT22;27566;50.930;5.328;2024-03-23T20:27:11;7.10;93.10
41884;DHT22;27566;50.930;5.328;2024-03-23T20:36:57;6.70;96.10
41884;DHT22;27566;50.930;5.328;2024-03-23T20:39:23;6.40;99.00
41884;DHT22;27566;50.930;5.328;2024-03-23T20:41:49;6.50;99.30
41884;DHT22;27566;50.930;5.328;2024-03-23T20:46:41;6.20;95.50
41884;DHT22;27566;50.930;5.328;2024-03-23T20:51:34;6.50;93.40
41884;DHT22;27566;50.930;5.328;2024-03-23T20:58:52;6.10;99.00
41884;DHT22;27566;50.930;5.328;2024-03-23T21:03:44;6.20;94.30
41884;DHT22;27566;50.930;5.328;2024-03-23T21:06:10;6.30;97.00
41884;DHT22;27566;50.930;5.328;2024-03-23T21:11:03;6.50;99.30
41884;DHT22;27566;50.930;5.328;2024-03-23T21:13:29;6.20;93.10
41884;DHT22;27566;50.930;5.328;2024-03-23T21:15:57;5.90;99.40
41884;DHT22;27566;50.930;5.328;2024-03-23T21:18:27;6.40;99.40
41884;DHT22;27566;50.930;5.328;2024-03-23T21:20:55;6.30;95.60
41884;DHT22;27566;50.930;5.328;2024-03-23T21:23:23;6.30;94.80
41884;DHT22;27566;50.930;5.328;2024-03-23T21:25:57;6.30;99.60
41884;DHT22;27566;50.930;5.328;2024-03-23T21:28:23;6.40;99.50
41884;DHT22;27566;50.930;5.328;2024-03-23T21:30:50;6.10;93.20
41884;DHT22;27566;50.930;5.328;2024-03-23T21:33:16;6.10;93.20
41884;DHT22;27566;50.930;5.328;2024-03-23T21:35:42;6.10;99.30
41884;DHT22;27566;50.930;5.328;2024-03-23T21:38:08;6.30;99.50
41884;DHT22;27566;50.930;5.328;2024-03-23T21:40:34;6.10;99.60
41884;DHT22;27566;50.930;5.328;2024-03-23T21:47:52;6.10;99.70
41884;DHT22;27566;50.930;5.328;2024-03-23T21:52:45;6.00;99.80
41884;DHT22;27566;50.930;5.328;2024-03-23T21:57:37;5.60;99.80
41884;DHT22;27566;50.930;5.328;2024-03-23T22:00:03;5.80;93.20
41884;DHT22;27566;50.930;5.328;2024-03-23T22:02:29;6.10;99.90
41884;DHT22;27566;50.930;5.328;2024-03-23T22:07:21;6.20;99.90
41884;DHT22;27566;50.930;5.328;2024-03-23T22:09:52;6.10;93.40
41884;DHT22;27566;50.930;5.328;2024-03-23T22:12:19;5.80;99.90
41884;DHT22;27566;50.930;5.328;2024-03-23T22:14:46;6.10;93.60
41884;DHT22;27566;50.930;5.328;2024-03-23T22:17:12;6.00;99.90
41884;DHT22;27566;50.930;5.328;2024-03-23T22:19:37;6.00;97.90
41884;DHT22;27566;50.930;5.328;2024-03-23T22:22:03;6.80;93.80
41884;DHT22;27566;50.930;5.328;2024-03-23T22:24:31;6.30;95.10
41884;DHT22;27566;50.930;5.328;2024-03-23T22:26:57;6.50;99.90
41884;DHT22;27566;50.930;5.328;2024-03-23T22:31:49;6.10;99.90
41884;DHT22;27566;50.930;5.328;2024-03-23T22:34:15;6.40;99.90
41884;DHT22;27566;50.930;5.328;2024-03-23T22:39:07;6.00;99.90
41884;DHT22;27566;50.930;5.328;2024-03-23T22:44:00;6.40;99.90
41884;DHT22;27566;50.930;5.328;2024-03-23T22:46:26;6.20;99.90
41884;DHT22;27566;50.930;5.328;2024-03-23T22:51:18;6.30;99.90
41884;DHT22;27566;50.930;5.328;2024-03-23T22:53:45;6.00;99.90
41884;DHT22;27566;50.930;5.328;2024-03-23T22:56:10;6.40;99.90
41884;DHT22;27566;50.930;5.328;2024-03-23T23:01:06;6.40;93.80
41884;DHT22;27566;50.930;5.328;2024-03-23T23:03:33;6.50;93.90
41884;DHT22;27566;50.930;5.328;2024-03-23T23:06:02;6.60;93.90
41884;DHT22;27566;50.930;5.328;2024-03-23T23:15:48;6.80;94.50
41884;DHT22;27566;50.930;5.328;2024-03-23T23:20:41;6.60;94.20
41884;DHT22;27566;50.930;5.328;2024-03-23T23:25:33;6.90;99.10
41884;DHT22;27566;50.930;5.328;2024-03-23T23:28:00;6.50;99.90
41884;DHT22;27566;50.930;5.328;2024-03-23T23:30:26;7.20;96.50
41884;DHT22;27566;50.930;5.328;2024-03-23T23:35:18;6.70;99.70
41884;DHT22;27566;50.930;5.328;2024-03-23T23:40:10;6.30;99.60
41884;DHT22;27566;50.930;5.328;2024-03-23T23:42:36;6.30;96.30
41884;DHT22;27566;50.930;5.328;2024-03-23T23:49:55;6.50;99.40
41884;DHT22;27566;50.930;5.328;2024-03-23T23:52:21;6.30;99.40
41884;DHT22;27566;50.930;5.328;2024-03-23T23:54:47;6.30;96.50
